sensor_id;sensor_type;location;lat;lon;timestamp;P1;durP1;ratioP1;P2;durP2;ratioP2
42600;SDS011;28229;48.856;9.088;2022-10-15T00:01:31;0.70;;;0.70;;
42600;SDS011;28229;48.856;9.088;2022-10-15T00:03:58;0.87;;;0.80;;
42600;SDS011;28229;48.856;9.088;2022-10-15T00:06:25;0.70;;;0.70;;
42600;SDS011;28229;48.856;9.088;2022-10-15T00:08:50;1.00;;;0.73;;
42600;SDS011;28229;48.856;9.088;2022-10-15T00:11:20;1.03;;;0.80;;
42600;SDS011;28229;48.856;9.088;2022-10-15T00:13:48;0.70;;;0.70;;
42600;SDS011;28229;48.856;9.088;2022-10-15T00:16:18;0.60;;;0.60;;
42600;SDS011;28229;48.856;9.088;2022-10-15T00:18:46;1.67;;;0.50;;
42600;SDS011;28229;48.856;9.088;2022-10-15T00:21:13;0.40;;;0.40;;
42600;SDS011;28229;48.856;9.088;2022-10-15T00:23:40;0.50;;;0.50;;
42600;SDS011;28229;48.856;9.088;2022-10-15T00:26:08;0.80;;;0.57;;
42600;SDS011;28229;48.856;9.088;2022-10-15T00:28:39;0.40;;;0.40;;
42600;SDS011;28229;48.856;9.088;2022-10-15T00:31:07;0.60;;;0.60;;
42600;SDS011;28229;48.856;9.088;2022-10-15T00:33:36;0.70;;;0.70;;
42600;SDS011;28229;48.856;9.088;2022-10-15T00:36:06;1.07;;;0.50;;
42600;SDS011;28229;48.856;9.088;2022-10-15T00:38:35;2.10;;;0.60;;
42600;SDS011;28229;48.856;9.088;2022-10-15T00:41:02;0.67;;;0.60;;
42600;SDS011;28229;48.856;9.088;2022-10-15T00:43:40;0.67;;;0.60;;
42600;SDS011;28229;48.856;9.088;2022-10-15T00:46:42;0.43;;;0.43;;
42600;SDS011;28229;48.856;9.088;2022-10-15T00:52:10;1.43;;;0.50;;
42600;SDS011;28229;48.856;9.088;2022-10-15T00:54:40;0.73;;;0.57;;
42600;SDS011;28229;48.856;9.088;2022-10-15T00:57:08;1.37;;;0.57;;
42600;SDS011;28229;48.856;9.088;2022-10-15T00:59:36;0.40;;;0.40;;
42600;SDS011;28229;48.856;9.088;2022-10-15T01:02:05;0.40;;;0.40;;
42600;SDS011;28229;48.856;9.088;2022-10-15T01:04:33;0.60;;;0.47;;
42600;SDS011;28229;48.856;9.088;2022-10-15T01:06:59;0.50;;;0.40;;
42600;SDS011;28229;48.856;9.088;2022-10-15T01:09:25;0.37;;;0.37;;
42600;SDS011;28229;48.856;9.088;2022-10-15T01:11:51;0.43;;;0.43;;
42600;SDS011;28229;48.856;9.088;2022-10-15T01:14:22;0.53;;;0.50;;
42600;SDS011;28229;48.856;9.088;2022-10-15T01:27:51;1.43;;;1.10;;
42600;SDS011;28229;48.856;9.088;2022-10-15T01:35:49;0.50;;;0.50;;
42600;SDS011;28229;48.856;9.088;2022-10-15T01:41:09;1.10;;;0.50;;
42600;SDS011;28229;48.856;9.088;2022-10-15T01:43:47;0.40;;;0.40;;
42600;SDS011;28229;48.856;9.088;2022-10-15T01:47:03;1.90;;;0.60;;
42600;SDS011;28229;48.856;9.088;2022-10-15T01:49:27;0.37;;;0.37;;
42600;SDS011;28229;48.856;9.088;2022-10-15T01:51:56;1.90;;;0.30;;
42600;SDS011;28229;48.856;9.088;2022-10-15T01:54:25;1.33;;;0.40;;
42600;SDS011;28229;48.856;9.088;2022-10-15T01:56:52;0.30;;;0.30;;
42600;SDS011;28229;48.856;9.088;2022-10-15T01:59:22;2.47;;;0.50;;
42600;SDS011;28229;48.856;9.088;2022-10-15T02:01:52;0.50;;;0.43;;
42600;SDS011;28229;48.856;9.088;2022-10-15T02:04:22;0.40;;;0.40;;
42600;SDS011;28229;48.856;9.088;2022-10-15T02:12:35;0.60;;;0.60;;
42600;SDS011;28229;48.856;9.088;2022-10-15T02:15:10;0.50;;;0.50;;
42600;SDS011;28229;48.856;9.088;2022-10-15T02:26:16;1.20;;;0.57;;
42600;SDS011;28229;48.856;9.088;2022-10-15T02:28:45;1.23;;;0.70;;
42600;SDS011;28229;48.856;9.088;2022-10-15T02:31:17;1.03;;;0.57;;
42600;SDS011;28229;48.856;9.088;2022-10-15T02:33:46;0.63;;;0.60;;
42600;SDS011;28229;48.856;9.088;2022-10-15T02:36:14;0.77;;;0.40;;
42600;SDS011;28229;48.856;9.088;2022-10-15T02:38:42;1.17;;;0.60;;
42600;SDS011;28229;48.856;9.088;2022-10-15T02:41:11;0.40;;;0.40;;
42600;SDS011;28229;48.856;9.088;2022-10-15T02:43:38;0.60;;;0.60;;
42600;SDS011;28229;48.856;9.088;2022-10-15T02:46:05;1.50;;;0.60;;
42600;SDS011;28229;48.856;9.088;2022-10-15T02:48:35;0.87;;;0.50;;
42600;SDS011;28229;48.856;9.088;2022-10-15T02:51:01;1.27;;;0.60;;
42600;SDS011;28229;48.856;9.088;2022-10-15T02:53:31;0.53;;;0.53;;
42600;SDS011;28229;48.856;9.088;2022-10-15T02:55:57;0.57;;;0.33;;
42600;SDS011;28229;48.856;9.088;2022-10-15T02:58:23;0.30;;;0.30;;
42600;SDS011;28229;48.856;9.088;2022-10-15T03:00:50;0.53;;;0.50;;
42600;SDS011;28229;48.856;9.088;2022-10-15T03:03:16;0.60;;;0.50;;
42600;SDS011;28229;48.856;9.088;2022-10-15T03:05:43;0.50;;;0.50;;
42600;SDS011;28229;48.856;9.088;2022-10-15T03:08:10;0.70;;;0.53;;
42600;SDS011;28229;48.856;9.088;2022-10-15T03:10:36;0.47;;;0.47;;
42600;SDS011;28229;48.856;9.088;2022-10-15T03:13:03;0.50;;;0.47;;
42600;SDS011;28229;48.856;9.088;2022-10-15T03:15:32;0.50;;;0.50;;
42600;SDS011;28229;48.856;9.088;2022-10-15T03:17:58;1.37;;;0.37;;
42600;SDS011;28229;48.856;9.088;2022-10-15T03:20:24;0.70;;;0.50;;
42600;SDS011;28229;48.856;9.088;2022-10-15T03:22:51;0.30;;;0.30;;
42600;SDS011;28229;48.856;9.088;2022-10-15T03:25:16;1.10;;;0.40;;
42600;SDS011;28229;48.856;9.088;2022-10-15T03:27:43;0.50;;;0.50;;
42600;SDS011;28229;48.856;9.088;2022-10-15T03:30:21;2.00;;;0.30;;
42600;SDS011;28229;48.856;9.088;2022-10-15T03:32:47;0.30;;;0.30;;
42600;SDS011;28229;48.856;9.088;2022-10-15T03:35:12;1.60;;;0.30;;
42600;SDS011;28229;48.856;9.088;2022-10-15T03:37:38;0.30;;;0.30;;
42600;SDS011;28229;48.856;9.088;2022-10-15T03:40:06;0.40;;;0.40;;
42600;SDS011;28229;48.856;9.088;2022-10-15T03:42:33;0.83;;;0.30;;
42600;SDS011;28229;48.856;9.088;2022-10-15T03:45:00;0.30;;;0.30;;
42600;SDS011;28229;48.856;9.088;2022-10-15T03:47:27;0.30;;;0.30;;
42600;SDS011;28229;48.856;9.088;2022-10-15T03:49:55;2.80;;;0.37;;
42600;SDS011;28229;48.856;9.088;2022-10-15T03:52:21;0.87;;;0.40;;
42600;SDS011;28229;48.856;9.088;2022-10-15T03:54:51;0.20;;;0.20;;
42600;SDS011;28229;48.856;9.088;2022-10-15T03:57:19;0.30;;;0.30;;
42600;SDS011;28229;48.856;9.088;2022-10-15T03:59:51;0.80;;;0.40;;
42600;SDS011;28229;48.856;9.088;2022-10-15T04:02:18;1.43;;;0.40;;
42600;SDS011;28229;48.856;9.088;2022-10-15T04:04:44;0.50;;;0.40;;
42600;SDS011;28229;48.856;9.088;2022-10-15T04:07:10;0.30;;;0.30;;
42600;SDS011;28229;48.856;9.088;2022-10-15T04:09:37;0.40;;;0.10;;
42600;SDS011;28229;48.856;9.088;2022-10-15T04:12:22;1.37;;;0.30;;
42600;SDS011;28229;48.856;9.088;2022-10-15T04:14:48;0.20;;;0.20;;
42600;SDS011;28229;48.856;9.088;2022-10-15T04:17:14;0.43;;;0.23;;
42600;SDS011;28229;48.856;9.088;2022-10-15T04:19:40;0.77;;;0.30;;
42600;SDS011;28229;48.856;9.088;2022-10-15T04:22:06;0.53;;;0.30;;
42600;SDS011;28229;48.856;9.088;2022-10-15T04:24:40;0.40;;;0.40;;
42600;SDS011;28229;48.856;9.088;2022-10-15T04:27:06;0.73;;;0.30;;
42600;SDS011;28229;48.856;9.088;2022-10-15T04:29:32;1.53;;;0.30;;
42600;SDS011;28229;48.856;9.088;2022-10-15T04:32:11;0.30;;;0.30;;
42600;SDS011;28229;48.856;9.088;2022-10-15T04:34:39;0.93;;;0.50;;
42600;SDS011;28229;48.856;9.088;2022-10-15T04:37:05;0.30;;;0.30;;
42600;SDS011;28229;48.856;9.088;2022-10-15T04:39:32;0.50;;;0.30;;
42600;SDS011;28229;48.856;9.088;2022-10-15T04:41:58;0.60;;;0.60;;
42600;SDS011;28229;48.856;9.088;2022-10-15T04:44:27;1.73;;;1.50;;
42600;SDS011;28229;48.856;9.088;2022-10-15T04:46:56;2.40;;;2.20;;
42600;SDS011;28229;48.856;9.088;2022-10-15T04:49:36;2.30;;;2.10;;
42600;SDS011;28229;48.856;9.088;2022-10-15T04:52:08;1.87;;;1.43;;
42600;SDS011;28229;48.856;9.088;2022-10-15T04:54:48;0.67;;;0.60;;
42600;SDS011;28229;48.856;9.088;2022-10-15T04:57:14;0.20;;;0.20;;
42600;SDS011;28229;48.856;9.088;2022-10-15T04:59:39;0.30;;;0.30;;
42600;SDS011;28229;48.856;9.088;2022-10-15T05:02:26;0.53;;;0.50;;
42600;SDS011;28229;48.856;9.088;2022-10-15T05:05:01;0.40;;;0.40;;
42600;SDS011;28229;48.856;9.088;2022-10-15T05:07:27;0.23;;;0.23;;
42600;SDS011;28229;48.856;9.088;2022-10-15T05:09:54;0.30;;;0.30;;
42600;SDS011;28229;48.856;9.088;2022-10-15T05:12:20;0.20;;;0.20;;
42600;SDS011;28229;48.856;9.088;2022-10-15T05:14:46;0.30;;;0.30;;
42600;SDS011;28229;48.856;9.088;2022-10-15T05:17:22;0.53;;;0.53;;
42600;SDS011;28229;48.856;9.088;2022-10-15T05:19:47;1.03;;;0.67;;
42600;SDS011;28229;48.856;9.088;2022-10-15T05:22:17;0.83;;;0.67;;
42600;SDS011;28229;48.856;9.088;2022-10-15T05:24:50;0.40;;;0.40;;
42600;SDS011;28229;48.856;9.088;2022-10-15T05:27:45;1.17;;;0.40;;
42600;SDS011;28229;48.856;9.088;2022-10-15T05:30:11;0.50;;;0.50;;
42600;SDS011;28229;48.856;9.088;2022-10-15T05:32:45;0.60;;;0.60;;
42600;SDS011;28229;48.856;9.088;2022-10-15T05:35:14;0.43;;;0.43;;
42600;SDS011;28229;48.856;9.088;2022-10-15T05:38:01;1.43;;;0.50;;
42600;SDS011;28229;48.856;9.088;2022-10-15T05:40:26;0.27;;;0.27;;
42600;SDS011;28229;48.856;9.088;2022-10-15T05:43:02;1.00;;;0.37;;
42600;SDS011;28229;48.856;9.088;2022-10-15T05:45:29;4.80;;;4.13;;
42600;SDS011;28229;48.856;9.088;2022-10-15T05:48:02;7.97;;;7.27;;
42600;SDS011;28229;48.856;9.088;2022-10-15T05:50:28;6.40;;;5.80;;
42600;SDS011;28229;48.856;9.088;2022-10-15T05:52:56;3.23;;;2.50;;
42600;SDS011;28229;48.856;9.088;2022-10-15T05:55:42;1.00;;;1.00;;
42600;SDS011;28229;48.856;9.088;2022-10-15T05:58:08;1.90;;;1.43;;
42600;SDS011;28229;48.856;9.088;2022-10-15T06:00:34;1.50;;;1.40;;
42600;SDS011;28229;48.856;9.088;2022-10-15T06:03:00;1.30;;;1.20;;
42600;SDS011;28229;48.856;9.088;2022-10-15T06:05:26;1.30;;;1.20;;
42600;SDS011;28229;48.856;9.088;2022-10-15T06:07:52;2.33;;;1.60;;
42600;SDS011;28229;48.856;9.088;2022-10-15T06:10:18;1.60;;;1.50;;
42600;SDS011;28229;48.856;9.088;2022-10-15T06:12:48;1.40;;;1.30;;
42600;SDS011;28229;48.856;9.088;2022-10-15T06:15:15;1.27;;;1.17;;
42600;SDS011;28229;48.856;9.088;2022-10-15T06:17:41;1.60;;;1.40;;
42600;SDS011;28229;48.856;9.088;2022-10-15T06:20:07;1.67;;;1.53;;
42600;SDS011;28229;48.856;9.088;2022-10-15T06:22:33;1.30;;;1.20;;
42600;SDS011;28229;48.856;9.088;2022-10-15T06:24:59;1.37;;;1.27;;
42600;SDS011;28229;48.856;9.088;2022-10-15T06:27:26;1.33;;;1.23;;
42600;SDS011;28229;48.856;9.088;2022-10-15T06:29:52;1.00;;;1.00;;
42600;SDS011;28229;48.856;9.088;2022-10-15T06:32:18;1.00;;;1.00;;
42600;SDS011;28229;48.856;9.088;2022-10-15T06:34:44;4.30;;;1.00;;
42600;SDS011;28229;48.856;9.088;2022-10-15T06:37:10;1.07;;;1.07;;
42600;SDS011;28229;48.856;9.088;2022-10-15T06:39:36;0.77;;;0.77;;
42600;SDS011;28229;48.856;9.088;2022-10-15T06:42:01;0.97;;;0.80;;
42600;SDS011;28229;48.856;9.088;2022-10-15T06:44:37;1.00;;;0.93;;
42600;SDS011;28229;48.856;9.088;2022-10-15T06:47:04;0.93;;;0.80;;
42600;SDS011;28229;48.856;9.088;2022-10-15T06:49:29;0.67;;;0.67;;
42600;SDS011;28229;48.856;9.088;2022-10-15T06:51:55;1.10;;;1.00;;
42600;SDS011;28229;48.856;9.088;2022-10-15T06:54:23;0.60;;;0.60;;
42600;SDS011;28229;48.856;9.088;2022-10-15T06:56:49;0.80;;;0.80;;
42600;SDS011;28229;48.856;9.088;2022-10-15T06:59:16;0.93;;;0.93;;
42600;SDS011;28229;48.856;9.088;2022-10-15T07:01:41;0.90;;;0.90;;
42600;SDS011;28229;48.856;9.088;2022-10-15T07:04:07;1.13;;;0.90;;
42600;SDS011;28229;48.856;9.088;2022-10-15T07:06:34;0.90;;;0.90;;
42600;SDS011;28229;48.856;9.088;2022-10-15T07:09:00;0.73;;;0.73;;
42600;SDS011;28229;48.856;9.088;2022-10-15T07:11:27;0.80;;;0.80;;
42600;SDS011;28229;48.856;9.088;2022-10-15T07:13:53;1.20;;;1.10;;
42600;SDS011;28229;48.856;9.088;2022-10-15T07:16:21;3.60;;;3.30;;
42600;SDS011;28229;48.856;9.088;2022-10-15T07:18:47;4.93;;;4.43;;
42600;SDS011;28229;48.856;9.088;2022-10-15T07:21:13;4.40;;;4.00;;
42600;SDS011;28229;48.856;9.088;2022-10-15T07:23:39;5.43;;;4.93;;
42600;SDS011;28229;48.856;9.088;2022-10-15T07:26:05;4.37;;;3.87;;
42600;SDS011;28229;48.856;9.088;2022-10-15T07:28:31;3.70;;;3.30;;
42600;SDS011;28229;48.856;9.088;2022-10-15T07:31:01;3.57;;;3.23;;
42600;SDS011;28229;48.856;9.088;2022-10-15T07:33:28;3.33;;;3.13;;
42600;SDS011;28229;48.856;9.088;2022-10-15T07:35:58;4.00;;;2.70;;
42600;SDS011;28229;48.856;9.088;2022-10-15T07:38:26;2.93;;;2.40;;
42600;SDS011;28229;48.856;9.088;2022-10-15T07:40:55;4.57;;;2.20;;
42600;SDS011;28229;48.856;9.088;2022-10-15T07:43:22;3.43;;;2.30;;
42600;SDS011;28229;48.856;9.088;2022-10-15T07:45:48;2.53;;;2.03;;
42600;SDS011;28229;48.856;9.088;2022-10-15T07:48:15;3.63;;;1.90;;
42600;SDS011;28229;48.856;9.088;2022-10-15T07:50:40;1.40;;;1.30;;
42600;SDS011;28229;48.856;9.088;2022-10-15T07:53:06;1.80;;;1.10;;
42600;SDS011;28229;48.856;9.088;2022-10-15T07:55:32;0.97;;;0.80;;
42600;SDS011;28229;48.856;9.088;2022-10-15T07:57:58;3.40;;;0.90;;
42600;SDS011;28229;48.856;9.088;2022-10-15T08:00:24;1.83;;;0.77;;
42600;SDS011;28229;48.856;9.088;2022-10-15T08:02:50;1.63;;;0.90;;
42600;SDS011;28229;48.856;9.088;2022-10-15T08:05:18;1.43;;;1.00;;
42600;SDS011;28229;48.856;9.088;2022-10-15T08:07:44;0.93;;;0.93;;
42600;SDS011;28229;48.856;9.088;2022-10-15T08:10:11;1.73;;;1.10;;
42600;SDS011;28229;48.856;9.088;2022-10-15T08:12:38;1.10;;;1.00;;
42600;SDS011;28229;48.856;9.088;2022-10-15T08:15:04;3.47;;;1.10;;
42600;SDS011;28229;48.856;9.088;2022-10-15T08:17:30;1.10;;;1.00;;
42600;SDS011;28229;48.856;9.088;2022-10-15T08:19:56;1.70;;;0.90;;
42600;SDS011;28229;48.856;9.088;2022-10-15T08:22:22;2.40;;;0.90;;
42600;SDS011;28229;48.856;9.088;2022-10-15T08:24:48;1.13;;;0.80;;
42600;SDS011;28229;48.856;9.088;2022-10-15T08:27:14;1.93;;;1.03;;
42600;SDS011;28229;48.856;9.088;2022-10-15T08:29:40;1.70;;;0.97;;
42600;SDS011;28229;48.856;9.088;2022-10-15T08:32:06;1.53;;;1.10;;
42600;SDS011;28229;48.856;9.088;2022-10-15T08:34:32;2.90;;;1.20;;
42600;SDS011;28229;48.856;9.088;2022-10-15T08:36:58;2.00;;;1.03;;
42600;SDS011;28229;48.856;9.088;2022-10-15T08:39:24;2.57;;;0.93;;
42600;SDS011;28229;48.856;9.088;2022-10-15T08:41:51;1.47;;;0.97;;
42600;SDS011;28229;48.856;9.088;2022-10-15T08:44:37;1.60;;;1.00;;
42600;SDS011;28229;48.856;9.088;2022-10-15T08:53:01;1.67;;;0.90;;
42600;SDS011;28229;48.856;9.088;2022-10-15T08:55:28;1.00;;;1.00;;
42600;SDS011;28229;48.856;9.088;2022-10-15T09:00:34;1.87;;;0.93;;
42600;SDS011;28229;48.856;9.088;2022-10-15T09:03:14;2.30;;;1.50;;
42600;SDS011;28229;48.856;9.088;2022-10-15T09:11:40;1.20;;;1.20;;
42600;SDS011;28229;48.856;9.088;2022-10-15T09:14:11;1.63;;;1.20;;
42600;SDS011;28229;48.856;9.088;2022-10-15T09:16:41;1.57;;;1.20;;
42600;SDS011;28229;48.856;9.088;2022-10-15T09:19:13;1.37;;;1.10;;
42600;SDS011;28229;48.856;9.088;2022-10-15T09:21:41;2.87;;;1.27;;
42600;SDS011;28229;48.856;9.088;2022-10-15T09:24:08;2.83;;;1.20;;
42600;SDS011;28229;48.856;9.088;2022-10-15T09:29:29;2.77;;;1.47;;
42600;SDS011;28229;48.856;9.088;2022-10-15T09:32:22;3.40;;;1.27;;
42600;SDS011;28229;48.856;9.088;2022-10-15T09:34:58;1.90;;;1.10;;
42600;SDS011;28229;48.856;9.088;2022-10-15T09:37:59;0.87;;;0.87;;
42600;SDS011;28229;48.856;9.088;2022-10-15T09:40:51;0.67;;;0.67;;
42600;SDS011;28229;48.856;9.088;2022-10-15T09:43:34;0.90;;;0.80;;
42600;SDS011;28229;48.856;9.088;2022-10-15T09:46:02;1.70;;;0.87;;
42600;SDS011;28229;48.856;9.088;2022-10-15T09:48:33;1.97;;;1.10;;
42600;SDS011;28229;48.856;9.088;2022-10-15T09:56:49;0.90;;;0.80;;
42600;SDS011;28229;48.856;9.088;2022-10-15T09:59:18;0.90;;;0.90;;
42600;SDS011;28229;48.856;9.088;2022-10-15T10:02:01;0.53;;;0.53;;
42600;SDS011;28229;48.856;9.088;2022-10-15T10:04:30;0.63;;;0.43;;
42600;SDS011;28229;48.856;9.088;2022-10-15T10:06:59;0.43;;;0.43;;
42600;SDS011;28229;48.856;9.088;2022-10-15T10:09:28;0.40;;;0.40;;
42600;SDS011;28229;48.856;9.088;2022-10-15T10:12:01;0.40;;;0.40;;
42600;SDS011;28229;48.856;9.088;2022-10-15T10:14:31;0.43;;;0.37;;
42600;SDS011;28229;48.856;9.088;2022-10-15T10:17:18;0.60;;;0.60;;
42600;SDS011;28229;48.856;9.088;2022-10-15T10:20:01;1.53;;;0.50;;
42600;SDS011;28229;48.856;9.088;2022-10-15T10:23:20;0.70;;;0.70;;
42600;SDS011;28229;48.856;9.088;2022-10-15T10:28:12;0.70;;;0.50;;
42600;SDS011;28229;48.856;9.088;2022-10-15T10:35:58;0.63;;;0.60;;
42600;SDS011;28229;48.856;9.088;2022-10-15T10:38:36;0.70;;;0.70;;
42600;SDS011;28229;48.856;9.088;2022-10-15T10:41:08;0.77;;;0.53;;
42600;SDS011;28229;48.856;9.088;2022-10-15T10:43:37;0.87;;;0.87;;
42600;SDS011;28229;48.856;9.088;2022-10-15T10:48:46;1.07;;;0.97;;
42600;SDS011;28229;48.856;9.088;2022-10-15T10:56:23;1.63;;;0.80;;
42600;SDS011;28229;48.856;9.088;2022-10-15T10:58:56;1.60;;;0.77;;
42600;SDS011;28229;48.856;9.088;2022-10-15T11:01:26;1.90;;;0.70;;
42600;SDS011;28229;48.856;9.088;2022-10-15T11:03:53;0.73;;;0.73;;
42600;SDS011;28229;48.856;9.088;2022-10-15T11:06:23;1.13;;;0.60;;
42600;SDS011;28229;48.856;9.088;2022-10-15T11:11:28;1.57;;;0.70;;
42600;SDS011;28229;48.856;9.088;2022-10-15T11:19:25;1.03;;;0.50;;
42600;SDS011;28229;48.856;9.088;2022-10-15T11:22:20;0.63;;;0.40;;
42600;SDS011;28229;48.856;9.088;2022-10-15T11:35:48;1.03;;;0.70;;
42600;SDS011;28229;48.856;9.088;2022-10-15T11:38:41;1.07;;;0.60;;
42600;SDS011;28229;48.856;9.088;2022-10-15T11:49:42;1.03;;;0.80;;
42600;SDS011;28229;48.856;9.088;2022-10-15T11:55:40;1.10;;;0.70;;
42600;SDS011;28229;48.856;9.088;2022-10-15T11:58:11;3.20;;;0.83;;
42600;SDS011;28229;48.856;9.088;2022-10-15T12:00:48;3.33;;;0.90;;
42600;SDS011;28229;48.856;9.088;2022-10-15T12:03:23;0.83;;;0.83;;
42600;SDS011;28229;48.856;9.088;2022-10-15T12:05:54;1.20;;;1.10;;
42600;SDS011;28229;48.856;9.088;2022-10-15T12:08:28;2.10;;;1.10;;
42600;SDS011;28229;48.856;9.088;2022-10-15T12:11:12;2.27;;;1.40;;
42600;SDS011;28229;48.856;9.088;2022-10-15T12:13:41;1.17;;;0.80;;
42600;SDS011;28229;48.856;9.088;2022-10-15T12:16:20;0.83;;;0.70;;
42600;SDS011;28229;48.856;9.088;2022-10-15T12:18:55;1.53;;;0.60;;
42600;SDS011;28229;48.856;9.088;2022-10-15T12:23:59;0.87;;;0.70;;
42600;SDS011;28229;48.856;9.088;2022-10-15T12:26:31;1.47;;;0.60;;
42600;SDS011;28229;48.856;9.088;2022-10-15T12:29:05;0.40;;;0.40;;
42600;SDS011;28229;48.856;9.088;2022-10-15T12:31:46;0.60;;;0.60;;
42600;SDS011;28229;48.856;9.088;2022-10-15T12:34:36;1.33;;;0.90;;
42600;SDS011;28229;48.856;9.088;2022-10-15T12:37:06;0.87;;;0.70;;
42600;SDS011;28229;48.856;9.088;2022-10-15T12:39:41;0.77;;;0.60;;
42600;SDS011;28229;48.856;9.088;2022-10-15T12:42:22;0.70;;;0.70;;
42600;SDS011;28229;48.856;9.088;2022-10-15T12:45:00;1.03;;;0.70;;
42600;SDS011;28229;48.856;9.088;2022-10-15T12:47:45;0.80;;;0.80;;
42600;SDS011;28229;48.856;9.088;2022-10-15T12:50:20;2.70;;;0.73;;
42600;SDS011;28229;48.856;9.088;2022-10-15T12:52:58;0.67;;;0.67;;
42600;SDS011;28229;48.856;9.088;2022-10-15T12:55:34;0.97;;;0.60;;
42600;SDS011;28229;48.856;9.088;2022-10-15T13:00:46;0.50;;;0.50;;
42600;SDS011;28229;48.856;9.088;2022-10-15T13:05:50;0.60;;;0.60;;
42600;SDS011;28229;48.856;9.088;2022-10-15T13:08:25;2.00;;;0.70;;
42600;SDS011;28229;48.856;9.088;2022-10-15T13:10:56;0.67;;;0.67;;
42600;SDS011;28229;48.856;9.088;2022-10-15T13:13:25;0.97;;;0.73;;
42600;SDS011;28229;48.856;9.088;2022-10-15T13:15:56;1.07;;;0.80;;
42600;SDS011;28229;48.856;9.088;2022-10-15T13:18:24;1.27;;;1.10;;
42600;SDS011;28229;48.856;9.088;2022-10-15T13:20:53;2.17;;;1.00;;
42600;SDS011;28229;48.856;9.088;2022-10-15T13:23:24;2.13;;;1.10;;
42600;SDS011;28229;48.856;9.088;2022-10-15T13:26:08;0.80;;;0.80;;
42600;SDS011;28229;48.856;9.088;2022-10-15T13:28:42;1.10;;;1.10;;
42600;SDS011;28229;48.856;9.088;2022-10-15T13:33:47;3.13;;;1.13;;
42600;SDS011;28229;48.856;9.088;2022-10-15T13:36:17;1.37;;;1.00;;
42600;SDS011;28229;48.856;9.088;2022-10-15T13:38:50;1.00;;;1.00;;
42600;SDS011;28229;48.856;9.088;2022-10-15T13:41:22;1.13;;;1.10;;
42600;SDS011;28229;48.856;9.088;2022-10-15T13:43:50;1.30;;;1.20;;
42600;SDS011;28229;48.856;9.088;2022-10-15T13:46:21;1.90;;;1.50;;
42600;SDS011;28229;48.856;9.088;2022-10-15T13:48:49;1.70;;;1.60;;
42600;SDS011;28229;48.856;9.088;2022-10-15T13:51:21;1.83;;;1.70;;
42600;SDS011;28229;48.856;9.088;2022-10-15T13:53:47;1.50;;;1.40;;
42600;SDS011;28229;48.856;9.088;2022-10-15T13:58:50;1.90;;;1.10;;
42600;SDS011;28229;48.856;9.088;2022-10-15T14:01:17;1.27;;;1.17;;
42600;SDS011;28229;48.856;9.088;2022-10-15T14:03:46;2.33;;;1.70;;
42600;SDS011;28229;48.856;9.088;2022-10-15T14:06:17;2.80;;;1.77;;
42600;SDS011;28229;48.856;9.088;2022-10-15T14:08:45;2.03;;;1.37;;
42600;SDS011;28229;48.856;9.088;2022-10-15T14:11:13;2.57;;;1.67;;
42600;SDS011;28229;48.856;9.088;2022-10-15T14:13:43;2.47;;;1.27;;
42600;SDS011;28229;48.856;9.088;2022-10-15T14:21:32;2.60;;;1.30;;
42600;SDS011;28229;48.856;9.088;2022-10-15T14:24:06;1.87;;;1.40;;
42600;SDS011;28229;48.856;9.088;2022-10-15T14:26:37;3.33;;;1.73;;
42600;SDS011;28229;48.856;9.088;2022-10-15T14:29:12;1.47;;;1.37;;
42600;SDS011;28229;48.856;9.088;2022-10-15T14:31:53;2.43;;;1.63;;
42600;SDS011;28229;48.856;9.088;2022-10-15T14:34:38;1.77;;;1.43;;
42600;SDS011;28229;48.856;9.088;2022-10-15T14:40:02;1.70;;;1.10;;
42600;SDS011;28229;48.856;9.088;2022-10-15T14:42:30;1.63;;;1.53;;
42600;SDS011;28229;48.856;9.088;2022-10-15T14:45:08;1.67;;;1.20;;
42600;SDS011;28229;48.856;9.088;2022-10-15T14:47:37;2.40;;;1.30;;
42600;SDS011;28229;48.856;9.088;2022-10-15T14:50:03;1.30;;;1.20;;
42600;SDS011;28229;48.856;9.088;2022-10-15T14:52:30;1.20;;;1.10;;
42600;SDS011;28229;48.856;9.088;2022-10-15T14:57:36;1.27;;;1.27;;
42600;SDS011;28229;48.856;9.088;2022-10-15T15:00:09;2.10;;;1.60;;
42600;SDS011;28229;48.856;9.088;2022-10-15T15:02:39;1.70;;;1.60;;
42600;SDS011;28229;48.856;9.088;2022-10-15T15:07:52;2.70;;;2.30;;
42600;SDS011;28229;48.856;9.088;2022-10-15T15:10:19;4.40;;;1.97;;
42600;SDS011;28229;48.856;9.088;2022-10-15T15:12:47;2.07;;;1.10;;
42600;SDS011;28229;48.856;9.088;2022-10-15T15:15:16;1.70;;;1.60;;
42600;SDS011;28229;48.856;9.088;2022-10-15T15:17:44;2.07;;;1.30;;
42600;SDS011;28229;48.856;9.088;2022-10-15T15:20:10;2.03;;;0.93;;
42600;SDS011;28229;48.856;9.088;2022-10-15T15:22:36;1.20;;;1.10;;
42600;SDS011;28229;48.856;9.088;2022-10-15T15:25:12;1.37;;;1.27;;
42600;SDS011;28229;48.856;9.088;2022-10-15T15:27:40;1.07;;;0.97;;
42600;SDS011;28229;48.856;9.088;2022-10-15T15:30:06;2.20;;;1.17;;
42600;SDS011;28229;48.856;9.088;2022-10-15T15:32:38;1.20;;;1.10;;
42600;SDS011;28229;48.856;9.088;2022-10-15T15:35:08;1.10;;;1.00;;
42600;SDS011;28229;48.856;9.088;2022-10-15T15:37:43;0.90;;;0.90;;
42600;SDS011;28229;48.856;9.088;2022-10-15T15:40:09;0.93;;;0.93;;
42600;SDS011;28229;48.856;9.088;2022-10-15T15:42:35;1.73;;;0.90;;
42600;SDS011;28229;48.856;9.088;2022-10-15T15:45:01;1.20;;;0.90;;
42600;SDS011;28229;48.856;9.088;2022-10-15T15:47:27;1.80;;;1.03;;
42600;SDS011;28229;48.856;9.088;2022-10-15T15:49:52;2.37;;;1.10;;
42600;SDS011;28229;48.856;9.088;2022-10-15T15:52:18;1.53;;;1.20;;
42600;SDS011;28229;48.856;9.088;2022-10-15T15:54:44;1.77;;;1.10;;
42600;SDS011;28229;48.856;9.088;2022-10-15T15:57:13;1.70;;;1.00;;
42600;SDS011;28229;48.856;9.088;2022-10-15T15:59:40;1.30;;;1.20;;
42600;SDS011;28229;48.856;9.088;2022-10-15T16:02:06;2.87;;;1.43;;
42600;SDS011;28229;48.856;9.088;2022-10-15T16:04:32;1.50;;;0.90;;
42600;SDS011;28229;48.856;9.088;2022-10-15T16:06:58;0.80;;;0.60;;
42600;SDS011;28229;48.856;9.088;2022-10-15T16:09:23;0.70;;;0.70;;
42600;SDS011;28229;48.856;9.088;2022-10-15T16:11:51;1.10;;;1.00;;
42600;SDS011;28229;48.856;9.088;2022-10-15T16:14:18;1.10;;;1.00;;
42600;SDS011;28229;48.856;9.088;2022-10-15T16:16:44;0.87;;;0.87;;
42600;SDS011;28229;48.856;9.088;2022-10-15T16:19:12;0.70;;;0.70;;
42600;SDS011;28229;48.856;9.088;2022-10-15T16:21:38;1.37;;;0.97;;
42600;SDS011;28229;48.856;9.088;2022-10-15T16:24:04;0.77;;;0.73;;
42600;SDS011;28229;48.856;9.088;2022-10-15T16:26:30;0.83;;;0.83;;
42600;SDS011;28229;48.856;9.088;2022-10-15T16:28:57;0.70;;;0.70;;
42600;SDS011;28229;48.856;9.088;2022-10-15T16:31:24;0.70;;;0.70;;
42600;SDS011;28229;48.856;9.088;2022-10-15T16:33:53;0.73;;;0.70;;
42600;SDS011;28229;48.856;9.088;2022-10-15T16:36:19;1.60;;;0.70;;
42600;SDS011;28229;48.856;9.088;2022-10-15T16:38:46;2.30;;;1.00;;
42600;SDS011;28229;48.856;9.088;2022-10-15T16:41:12;1.27;;;0.93;;
42600;SDS011;28229;48.856;9.088;2022-10-15T16:43:40;0.90;;;0.90;;
42600;SDS011;28229;48.856;9.088;2022-10-15T16:46:06;0.80;;;0.80;;
42600;SDS011;28229;48.856;9.088;2022-10-15T16:48:33;1.40;;;0.93;;
42600;SDS011;28229;48.856;9.088;2022-10-15T16:50:59;0.90;;;0.90;;
42600;SDS011;28229;48.856;9.088;2022-10-15T16:53:27;1.10;;;0.83;;
42600;SDS011;28229;48.856;9.088;2022-10-15T16:55:57;0.70;;;0.70;;
42600;SDS011;28229;48.856;9.088;2022-10-15T16:58:25;0.80;;;0.80;;
42600;SDS011;28229;48.856;9.088;2022-10-15T17:00:57;0.80;;;0.70;;
42600;SDS011;28229;48.856;9.088;2022-10-15T17:03:24;0.67;;;0.67;;
42600;SDS011;28229;48.856;9.088;2022-10-15T17:05:54;1.40;;;0.80;;
42600;SDS011;28229;48.856;9.088;2022-10-15T17:08:24;0.70;;;0.70;;
42600;SDS011;28229;48.856;9.088;2022-10-15T17:10:54;0.80;;;0.80;;
42600;SDS011;28229;48.856;9.088;2022-10-15T17:13:20;2.10;;;0.90;;
42600;SDS011;28229;48.856;9.088;2022-10-15T17:15:46;0.90;;;0.90;;
42600;SDS011;28229;48.856;9.088;2022-10-15T17:18:13;1.13;;;0.90;;